createdAt,value
2023-03-18T00:00:49.867Z,7.30
2023-03-18T00:05:51.612Z,7.35
2023-03-18T00:10:53.385Z,7.55
2023-03-18T00:15:55.722Z,7.50
2023-03-18T00:20:59.117Z,8.43
2023-03-18T00:26:02.430Z,8.02
2023-03-18T00:31:09.081Z,7.80
2023-03-18T00:36:13.807Z,7.72
2023-03-18T00:41:16.224Z,8.23
2023-03-18T00:46:19.946Z,8.98
2023-03-18T00:51:23.865Z,9.85
2023-03-18T00:56:28.119Z,8.85
2023-03-18T01:01:31.373Z,9.73
2023-03-18T01:06:35.623Z,9.20
2023-03-18T01:11:38.062Z,9.27
2023-03-18T01:16:39.874Z,9.45
2023-03-18T01:21:41.768Z,9.60
2023-03-18T01:26:44.590Z,9.77
2023-03-18T01:31:47.128Z,9.55
2023-03-18T01:36:49.736Z,10.27
2023-03-18T01:41:52.158Z,10.00
2023-03-18T01:46:54.542Z,11.07
2023-03-18T01:52:01.456Z,10.07
2023-03-18T01:57:03.961Z,10.00
2023-03-18T02:02:09.441Z,10.52
2023-03-18T02:07:19.983Z,10.93
2023-03-18T02:12:25.113Z,8.07
2023-03-18T02:17:33.919Z,10.95
2023-03-18T02:22:41.690Z,11.35
2023-03-18T02:27:51.105Z,12.50
2023-03-18T02:32:54.173Z,11.60
2023-03-18T02:37:55.987Z,12.93
2023-03-18T02:43:09.793Z,12.77
2023-03-18T02:48:16.111Z,12.35
2023-03-18T02:53:18.131Z,11.90
2023-03-18T02:58:19.970Z,13.05
2023-03-18T03:03:22.332Z,12.90
2023-03-18T03:08:24.531Z,11.98
2023-03-18T03:13:26.345Z,11.98
2023-03-18T03:18:30.024Z,12.20
2023-03-18T03:23:32.050Z,10.95
2023-03-18T03:28:34.389Z,11.77
2023-03-18T03:33:41.240Z,10.05
2023-03-18T03:38:43.645Z,10.00
2023-03-18T03:43:45.573Z,9.50
2023-03-18T03:48:48.091Z,9.57
2023-03-18T03:53:50.637Z,9.48
2023-03-18T03:58:52.372Z,9.10
2023-03-18T04:03:54.261Z,8.25
2023-03-18T04:08:56.588Z,8.27
2023-03-18T04:13:58.391Z,8.52
2023-03-18T04:19:00.236Z,8.52
2023-03-18T04:24:03.975Z,8.40
2023-03-18T04:29:05.912Z,8.52
2023-03-18T04:34:07.806Z,9.80
2023-03-18T04:39:10.114Z,8.52
2023-03-18T04:44:12.087Z,8.48
2023-03-18T04:49:13.890Z,8.90
2023-03-18T04:54:15.808Z,9.90
2023-03-18T04:59:19.200Z,9.73
2023-03-18T05:04:21.005Z,10.45
2023-03-18T05:09:22.788Z,10.25
2023-03-18T05:14:24.528Z,10.18
2023-03-18T05:19:26.366Z,11.35
2023-03-18T05:24:28.946Z,11.52
2023-03-18T05:29:30.727Z,11.18
2023-03-18T05:34:33.129Z,11.35
2023-03-18T05:39:35.295Z,11.57
2023-03-18T05:44:37.260Z,10.93
2023-03-18T05:49:39.229Z,11.55
2023-03-18T05:54:41.802Z,11.43
2023-03-18T05:59:43.941Z,12.15
2023-03-18T06:04:46.156Z,10.63
2023-03-18T06:09:48.019Z,11.20
2023-03-18T06:14:49.864Z,10.35
2023-03-18T06:19:51.956Z,10.52
2023-03-18T06:24:54.414Z,11.32
2023-03-18T06:29:56.497Z,10.85
2023-03-18T06:34:58.295Z,9.85
2023-03-18T06:40:00.448Z,10.15
2023-03-18T06:45:02.592Z,10.30
2023-03-18T06:50:05.773Z,10.82
2023-03-18T06:55:08.409Z,9.20
2023-03-18T07:00:11.146Z,9.75
2023-03-18T07:05:13.461Z,9.43
2023-03-18T07:10:29.997Z,8.85
2023-03-18T07:15:32.431Z,7.95
2023-03-18T07:20:35.482Z,8.55
2023-03-18T07:25:37.279Z,8.85
2023-03-18T07:30:39.614Z,8.55
2023-03-18T07:35:41.791Z,7.82
2023-03-18T07:40:43.608Z,8.25
2023-03-18T07:45:45.461Z,6.97
2023-03-18T07:50:47.379Z,7.25
2023-03-18T07:55:49.305Z,6.95
2023-03-18T08:00:52.740Z,7.20
2023-03-18T08:05:54.806Z,5.93
2023-03-18T08:10:58.690Z,6.13
2023-03-18T08:16:00.593Z,6.60
2023-03-18T08:21:02.492Z,6.43
2023-03-18T08:26:05.181Z,5.82
2023-03-18T08:31:07.046Z,5.88
2023-03-18T08:36:09.533Z,5.53
2023-03-18T08:41:11.456Z,4.80
2023-03-18T08:46:13.549Z,5.05
2023-03-18T08:51:16.761Z,4.68
2023-03-18T08:56:18.548Z,4.25
2023-03-18T09:01:22.391Z,3.95
2023-03-18T09:06:24.193Z,4.15
2023-03-18T09:11:26.255Z,3.67
2023-03-18T09:16:28.731Z,3.65
2023-03-18T09:21:31.501Z,3.40
2023-03-18T09:26:33.251Z,3.30
2023-03-18T09:31:35.046Z,3.00
2023-03-18T09:36:37.289Z,3.30
2023-03-18T09:41:52.780Z,3.03
2023-03-18T09:47:38.375Z,3.03
2023-03-18T09:52:45.137Z,2.15
2023-03-18T09:57:50.015Z,2.80
2023-03-18T10:03:06.672Z,2.92
2023-03-18T10:08:18.607Z,3.03
2023-03-18T10:13:33.784Z,2.92
2023-03-18T10:18:39.601Z,2.88
2023-03-18T10:24:07.538Z,3.05
2023-03-18T10:29:21.824Z,2.50
2023-03-18T10:34:29.547Z,2.90
2023-03-18T10:39:33.670Z,2.50
2023-03-18T10:44:40.946Z,2.65
2023-03-18T10:49:48.029Z,2.25
2023-03-18T10:54:53.153Z,2.20
2023-03-18T10:59:55.956Z,1.73
2023-03-18T11:05:13.447Z,2.22
2023-03-18T11:10:23.681Z,2.25
2023-03-18T11:15:26.504Z,2.00
2023-03-18T11:20:44.324Z,1.98
2023-03-18T11:25:48.798Z,1.40
2023-03-18T11:30:56.140Z,1.60
2023-03-18T11:36:00.412Z,2.42
2023-03-18T11:41:14.555Z,2.40
2023-03-18T11:46:16.461Z,2.58
2023-03-18T11:51:31.910Z,2.53
2023-03-18T11:57:05.824Z,2.10
2023-03-18T12:02:28.821Z,2.20
2023-03-18T12:07:38.164Z,2.28
2023-03-18T12:13:14.137Z,2.30
2023-03-18T12:18:37.279Z,2.10
2023-03-18T12:24:01.562Z,2.55
2023-03-18T12:29:09.707Z,2.40
2023-03-18T12:34:38.371Z,2.08
2023-03-18T12:40:13.560Z,1.70
2023-03-18T12:45:23.913Z,2.08
2023-03-18T12:50:42.839Z,1.98
2023-03-18T12:55:49.338Z,1.35
2023-03-18T13:01:20.770Z,1.75
2023-03-18T13:06:42.006Z,1.40
2023-03-18T13:12:11.605Z,1.50
2023-03-18T13:17:21.836Z,1.45
2023-03-18T13:22:36.737Z,1.60
2023-03-18T13:28:07.739Z,1.50
2023-03-18T13:33:33.222Z,1.13
2023-03-18T13:38:50.095Z,1.35
2023-03-18T13:43:53.373Z,1.30
2023-03-18T13:49:01.196Z,1.20
2023-03-18T13:54:05.870Z,1.15
2023-03-18T13:59:28.598Z,1.25
2023-03-18T14:04:48.914Z,0.93
2023-03-18T14:10:08.326Z,0.98
2023-03-18T14:15:37.850Z,0.90
2023-03-18T14:20:43.863Z,1.20
2023-03-18T14:25:54.404Z,0.98
2023-03-18T14:36:16.373Z,1.20
2023-03-18T14:41:25.528Z,1.10
2023-03-18T14:46:33.004Z,1.10
2023-03-18T14:51:35.553Z,1.10
2023-03-18T14:56:51.626Z,1.20
2023-03-18T15:01:55.457Z,1.23
2023-03-18T15:07:01.129Z,1.13
2023-03-18T15:12:20.022Z,1.48
2023-03-18T15:17:27.272Z,1.30
2023-03-18T15:22:31.790Z,1.20
2023-03-18T15:27:35.530Z,1.17
2023-03-18T15:32:49.898Z,1.30
2023-03-18T15:38:10.162Z,1.17
2023-03-18T15:43:11.859Z,1.10
2023-03-18T15:48:33.498Z,0.93
2023-03-18T15:53:43.187Z,1.05
2023-03-18T15:58:45.327Z,1.40
2023-03-18T16:03:47.194Z,1.10
2023-03-18T16:08:50.079Z,0.90
2023-03-18T16:13:52.408Z,1.30
2023-03-18T16:18:54.653Z,0.90
2023-03-18T16:23:56.846Z,0.82
2023-03-18T16:28:58.607Z,1.08
2023-03-18T16:34:00.614Z,0.90
2023-03-18T16:39:22.270Z,1.42
2023-03-18T16:44:25.523Z,1.25
2023-03-18T16:49:31.264Z,0.98
2023-03-18T16:54:33.814Z,1.08
2023-03-18T16:59:38.073Z,1.27
2023-03-18T17:04:39.905Z,1.25
2023-03-18T17:09:41.727Z,1.10
2023-03-18T17:14:57.410Z,1.88
2023-03-18T17:20:02.038Z,1.63
2023-03-18T17:25:04.740Z,1.42
2023-03-18T17:30:34.288Z,1.50
2023-03-18T17:35:36.642Z,2.38
2023-03-18T17:40:38.752Z,1.30
2023-03-18T17:45:40.707Z,1.52
2023-03-18T17:50:44.785Z,1.75
2023-03-18T17:55:46.600Z,0.70
2023-03-18T18:00:49.316Z,0.85
2023-03-18T18:05:51.892Z,0.55
2023-03-18T18:10:58.192Z,0.70
2023-03-18T18:16:00.191Z,0.60
2023-03-18T18:21:05.070Z,0.55
2023-03-18T18:26:11.019Z,0.75
2023-03-18T18:31:14.460Z,0.73
2023-03-18T18:36:16.698Z,1.13
2023-03-18T18:41:18.693Z,1.30
2023-03-18T18:46:21.802Z,1.10
2023-03-18T18:51:25.000Z,0.93
2023-03-18T18:56:36.751Z,1.40
2023-03-18T19:01:38.499Z,1.67
2023-03-18T19:06:40.646Z,1.27
2023-03-18T19:11:42.472Z,1.30
2023-03-18T19:16:44.662Z,1.23
2023-03-18T19:21:46.571Z,2.08
2023-03-18T19:26:48.392Z,3.90
2023-03-18T19:31:50.718Z,3.90
2023-03-18T19:36:55.258Z,3.45
2023-03-18T19:41:57.093Z,3.55
2023-03-18T19:46:59.393Z,2.35
2023-03-18T19:52:02.658Z,2.10
2023-03-18T19:57:12.321Z,2.35
2023-03-18T20:02:26.193Z,2.17
2023-03-18T20:07:30.325Z,1.92
2023-03-18T20:12:42.134Z,2.05
2023-03-18T20:17:47.828Z,2.10
2023-03-18T20:23:01.840Z,3.75
2023-03-18T20:28:05.066Z,4.10
2023-03-18T20:33:07.703Z,5.55
2023-03-18T20:38:18.517Z,6.93
2023-03-18T20:43:22.375Z,5.88
2023-03-18T20:48:24.474Z,5.13
2023-03-18T20:53:28.601Z,3.05
2023-03-18T20:58:30.663Z,1.90
2023-03-18T21:03:34.855Z,1.88
2023-03-18T21:08:37.191Z,2.10
2023-03-18T21:13:39.441Z,2.03
2023-03-18T21:18:42.218Z,1.80
2023-03-18T21:23:44.168Z,1.85
2023-03-18T21:28:46.002Z,1.23
2023-03-18T21:33:49.248Z,1.33
2023-03-18T21:38:51.035Z,1.40
2023-03-18T21:43:52.904Z,1.30
2023-03-18T21:48:55.596Z,1.30
2023-03-18T21:53:57.367Z,1.27
2023-03-18T21:58:59.255Z,1.83
2023-03-18T22:04:01.274Z,2.00
2023-03-18T22:09:03.541Z,2.20
2023-03-18T22:14:05.298Z,2.78
2023-03-18T22:19:07.176Z,2.72
2023-03-18T22:24:14.405Z,2.70
2023-03-18T22:29:16.294Z,2.97
2023-03-18T22:34:24.008Z,3.45
2023-03-18T22:39:26.001Z,3.67
2023-03-18T22:44:27.938Z,3.90
2023-03-18T22:49:29.703Z,3.42
2023-03-18T22:54:31.608Z,3.55
2023-03-18T22:59:33.421Z,3.95
2023-03-18T23:04:35.219Z,4.10
2023-03-18T23:09:44.243Z,4.20
2023-03-18T23:14:53.208Z,3.70
2023-03-18T23:19:55.077Z,4.65
2023-03-18T23:24:57.485Z,3.60
2023-03-18T23:29:59.372Z,3.75
2023-03-18T23:35:01.854Z,3.88
2023-03-18T23:40:05.421Z,3.58
2023-03-18T23:45:08.388Z,3.38
2023-03-18T23:50:11.327Z,3.45
2023-03-18T23:55:32.734Z,3.47
